Terminal Aerodrome Forecast
Issued by NWS Spokane, WA

Home | Current Version | Previous Version | Text Only | Print | Product List | Glossary On
Versions: 1 2 3 4 5 6 7 8 9 10 11 12 13 14 15 16
000
FTUS46 KOTX 252342 CCA
TAFEAT
TAF COR
KEAT 252342Z 2600/2624 30015G25KT P6SM FEW100
     FM260200 30020G28KT P6SM SKC
     FM261200 30015KT P6SM SKC
     FM261600 31013KT P6SM SCT150 BKN250
     FM262100 31016G30KT P6SM SCT100 BKN150=

USA.gov is the U.S. government's official web portal to all federal, state and local government web resources and services.